Terminal Aerodrome Forecast
Issued by NWS Wilmington, OH

Current Version | Previous Version | Text Only | Print | Product List | Glossary Off
Versions: 1 2 3 4 5 6 7 8 9 10 11 12 13 14 15 16 17 18 19 20 21 22 23 24

000
FTUS41 KILN 010000 AAA
TAFCMH
TAF AMD
KCMH 010038Z 0101/0124 20006KT P6SM OVC150
      TEMPO 0101/0102 5SM -TSRA BKN035CB
     FM010300 24006KT P6SM SCT100
     FM010900 26005KT 5SM BR SKC
      TEMPO 0109/0113 2SM BR FEW004
     FM011300 29007KT P6SM SCT035=

USA.gov is the U.S. government's official web portal to all federal, state and local government web resources and services.